Linch, Wyoming
Current Conditions -  °F | °C
As of 7:53 PM on Monday 22 Dec 2014 (Local Time) from KCPR Reporting Station
Light Snow Light Snow  
Wind Chill: 16°   Ceiling: 2200
Heat Index: 26°   Visibility: 1.5mi
Dew Point: 23°   Wind: 12mph
Humidity: 88%   Direction: 310°NW
Pressure: 29.9"   Gusts: NA
Location:  43.61°N, 106.2°W
Report Text: KCPR 230253Z 31010KT 1 1/2SM -SN BR OVC022 M03/M05 A2990 RMK AO2 SNE00B20 SLP157 P0000 60003 T10331050 53007
Loading
Personal Weather Stations






























Interactive Weather Map New forecast layout! Learn more

10-Day Weather Forecast

Advertisements
Track Severe Weather on mobile